Time;durP1;ratioP1;P1;durP2;ratioP2;P2;SDS_P1;SDS_P2;PMS_P1;PMS_P2;Temp;Humidity;BMP_temperature;BMP_pressure;BME280_temperature;BME280_humidity;BME280_pressure;Samples;Min_cycle;Max_cycle;Signal;HPM_P1;HPM_P2
2024/01/09 00:01:56;;;;;;;;;;;;;;;16.79;40.79;101335.09;5078511;28;1051;-57
2024/01/09 00:04:22;;;;;;;;;;;;;;;16.25;42.27;101337.53;5077877;28;1155;-59
2024/01/09 00:06:48;;;;;;;;;;;;;;;17.36;39.96;101333.19;5070247;28;1059;-54
2024/01/09 00:09:14;;;;;;;;;;;;;;;17.63;39.05;101342.91;5075596;28;1906;-60
2024/01/09 00:11:39;;;;;;;;;;;;;;;16.72;40.86;101347.03;5072521;28;1622;-55
2024/01/09 00:14:05;;;;;;;;;;;;;;;16.20;42.07;101352.91;5062352;28;1248;-56
2024/01/09 00:16:31;;;;;;;;;;;;;;;17.29;39.87;101352.31;5072610;28;1339;-56
2024/01/09 00:18:56;;;;;;;;;;;;;;;17.57;39.15;101353.09;5070023;28;1055;-55
2024/01/09 00:21:22;;;;;;;;;;;;;;;16.64;41.15;101353.72;5059045;28;896;-55
2024/01/09 00:23:47;;;;;;;;;;;;;;;16.15;42.16;101369.09;5057381;28;1087;-55
2024/01/09 00:26:13;;;;;;;;;;;;;;;17.40;39.81;101373.72;5070835;28;1102;-56
2024/01/09 00:28:39;;;;;;;;;;;;;;;17.52;38.96;101377.38;5057535;28;1111;-57
2024/01/09 00:31:04;;;;;;;;;;;;;;;16.69;40.67;101392.41;5074436;28;1909;-55
2024/01/09 00:33:30;;;;;;;;;;;;;;;16.20;42.14;101387.41;5076908;28;1059;-55
2024/01/09 00:35:55;;;;;;;;;;;;;;;17.37;39.72;101381.91;5073765;28;1190;-54
2024/01/09 00:38:21;;;;;;;;;;;;;;;17.65;39.13;101382.72;5057417;28;1130;-56
2024/01/09 00:40:47;;;;;;;;;;;;;;;16.67;40.67;101389.84;5073462;28;1156;-55
2024/01/09 00:43:12;;;;;;;;;;;;;;;16.18;42.00;101377.84;5076952;28;1098;-55
2024/01/09 00:45:38;;;;;;;;;;;;;;;17.38;39.67;101380.97;5071138;28;988;-53
2024/01/09 00:48:04;;;;;;;;;;;;;;;17.68;38.58;101385.19;5066609;28;1222;-54
2024/01/09 00:50:29;;;;;;;;;;;;;;;16.67;40.77;101384.53;5076969;28;1910;-54
2024/01/09 00:52:55;;;;;;;;;;;;;;;16.25;41.39;101389.78;5076895;28;1143;-55
2024/01/09 00:55:20;;;;;;;;;;;;;;;17.28;39.70;101387.84;5076763;28;1058;-56
2024/01/09 00:57:46;;;;;;;;;;;;;;;17.71;38.56;101392.09;5066892;28;832;-55
2024/01/09 01:00:12;;;;;;;;;;;;;;;16.64;40.53;101384.75;5076908;28;1164;-54
2024/01/09 01:02:37;;;;;;;;;;;;;;;16.23;41.70;101387.22;5076733;28;1044;-55
2024/01/09 01:05:03;;;;;;;;;;;;;;;17.40;39.24;101384.34;5076330;28;1059;-57
2024/01/09 01:07:28;;;;;;;;;;;;;;;17.62;38.62;101393.56;5067323;28;1094;-56
2024/01/09 01:09:54;;;;;;;;;;;;;;;16.68;40.37;101390.72;5073147;28;1910;-57
2024/01/09 01:12:20;;;;;;;;;;;;;;;16.34;41.42;101394.53;5066352;28;1114;-56
2024/01/09 01:14:45;;;;;;;;;;;;;;;17.78;38.48;101395.19;5076026;28;1106;-55
2024/01/09 01:17:11;;;;;;;;;;;;;;;17.21;39.36;101392.69;5076521;28;1172;-56
2024/01/09 01:19:36;;;;;;;;;;;;;;;16.50;40.67;101388.25;5074438;28;1098;-56
2024/01/09 01:22:02;;;;;;;;;;;;;;;16.30;41.27;101374.41;5067599;28;1090;-56
2024/01/09 01:24:28;;;;;;;;;;;;;;;17.80;38.47;101385.31;5056652;28;1071;-55
2024/01/09 01:26:54;;;;;;;;;;;;;;;17.27;38.91;101376.34;5065352;28;1168;-57
2024/01/09 01:29:19;;;;;;;;;;;;;;;16.55;40.75;101388.81;5062455;28;1913;-56
2024/01/09 01:31:45;;;;;;;;;;;;;;;16.38;41.20;101392.53;5075528;28;1129;-57
2024/01/09 01:34:11;;;;;;;;;;;;;;;17.80;38.38;101398.59;5071037;28;987;-56
2024/01/09 01:36:37;;;;;;;;;;;;;;;17.19;39.16;101390.16;5076594;28;1213;-54
2024/01/09 01:39:02;;;;;;;;;;;;;;;16.49;40.79;101398.03;5075964;28;1110;-56
2024/01/09 01:41:28;;;;;;;;;;;;;;;16.27;41.02;101399.38;5075746;28;1271;-57
2024/01/09 01:43:53;;;;;;;;;;;;;;;17.79;38.35;101394.22;5062619;28;1131;-55
2024/01/09 01:46:19;;;;;;;;;;;;;;;17.17;39.25;101381.41;5076100;28;1106;-55
2024/01/09 01:48:45;;;;;;;;;;;;;;;16.48;40.57;101384.84;5057606;28;1071;-56
2024/01/09 01:51:11;;;;;;;;;;;;;;;16.08;41.59;101380.19;5076261;28;1909;-55
2024/01/09 01:53:37;;;;;;;;;;;;;;;17.51;38.70;101378.34;5074455;28;1102;-57
2024/01/09 01:56:02;;;;;;;;;;;;;;;17.43;38.30;101384.16;5057401;28;1167;-57
2024/01/09 01:58:32;;;;;;;;;;;;;;;16.58;40.22;101387.78;5060897;28;1179;-56
2024/01/09 02:00:58;;;;;;;;;;;;;;;16.15;41.33;101384.16;5038593;28;1115;-57
2024/01/09 02:03:24;;;;;;;;;;;;;;;17.40;38.98;101389.66;5069293;28;1099;-56
2024/01/09 02:05:50;;;;;;;;;;;;;;;17.66;37.99;101388.88;5064549;28;1051;-56
2024/01/09 02:08:15;;;;;;;;;;;;;;;16.70;39.94;101381.69;5071156;28;1230;-57
2024/01/09 02:10:41;;;;;;;;;;;;;;;16.24;40.80;101373.00;5050312;28;1984;-56
2024/01/09 02:13:07;;;;;;;;;;;;;;;16.95;39.75;101371.31;5075482;28;1086;-56
2024/01/09 02:15:32;;;;;;;;;;;;;;;18.07;37.46;101381.69;5067230;28;1122;-54
2024/01/09 02:17:58;;;;;;;;;;;;;;;16.95;39.44;101372.13;5057984;28;1082;-55
2024/01/09 02:20:24;;;;;;;;;;;;;;;16.34;40.90;101385.69;5072991;28;952;-56
2024/01/09 02:22:50;;;;;;;;;;;;;;;16.43;40.83;101384.28;5057258;28;1142;-55
2024/01/09 02:25:15;;;;;;;;;;;;;;;17.81;37.92;101387.00;5075583;28;1083;-55
2024/01/09 02:27:50;;;;;;;;;;;;;;;17.09;39.18;101392.56;5062338;28;1161;-56
2024/01/09 02:30:16;;;;;;;;;;;;;;;16.43;40.40;101392.25;5075650;28;1905;-56
2024/01/09 02:32:41;;;;;;;;;;;;;;;16.36;40.55;101386.47;5070823;28;1147;-55
2024/01/09 02:35:07;;;;;;;;;;;;;;;17.79;37.90;101387.09;5065408;28;1166;-56
2024/01/09 02:37:33;;;;;;;;;;;;;;;17.30;38.54;101375.31;5072139;28;1114;-55
2024/01/09 02:40:00;;;;;;;;;;;;;;;16.48;40.18;101369.75;5065862;28;1150;-56
2024/01/09 02:42:27;;;;;;;;;;;;;;;16.55;40.28;101362.25;5076251;28;1035;-57
2024/01/09 02:44:54;;;;;;;;;;;;;;;17.97;37.52;101368.16;5075382;28;1086;-56
2024/01/09 02:47:22;;;;;;;;;;;;;;;17.06;38.97;101366.16;5062470;28;1157;-56
2024/01/09 02:49:48;;;;;;;;;;;;;;;16.38;40.25;101372.13;5075589;28;1906;-57
2024/01/09 02:52:14;;;;;;;;;;;;;;;16.94;39.83;101375.75;5075791;28;1070;-56
2024/01/09 02:54:39;;;;;;;;;;;;;;;17.96;37.31;101377.09;5075772;28;1083;-56
2024/01/09 02:57:05;;;;;;;;;;;;;;;16.91;39.15;101377.75;5073655;28;1270;-55
2024/01/09 02:59:30;;;;;;;;;;;;;;;16.37;40.41;101380.19;5078132;28;1051;-58
2024/01/09 03:01:56;;;;;;;;;;;;;;;17.28;38.85;101371.88;5079646;28;1067;-56
2024/01/09 03:04:21;;;;;;;;;;;;;;;17.58;37.86;101390.25;5079033;28;1043;-56
2024/01/09 03:06:47;;;;;;;;;;;;;;;16.71;39.53;101407.31;5079480;28;1083;-56
2024/01/09 03:09:13;;;;;;;;;;;;;;;16.24;41.15;101411.97;5078685;28;1965;-57
2024/01/09 03:11:38;;;;;;;;;;;;;;;17.16;39.15;101424.06;5065616;28;1250;-55
2024/01/09 03:14:04;;;;;;;;;;;;;;;17.74;37.67;101424.69;5079015;28;1118;-56
2024/01/09 03:16:29;;;;;;;;;;;;;;;16.72;39.52;101440.91;5078878;28;1090;-56
2024/01/09 03:18:55;;;;;;;;;;;;;;;16.21;40.51;101452.84;5079207;28;1055;-55
2024/01/09 03:21:21;;;;;;;;;;;;;;;17.25;38.79;101450.91;5078716;28;1163;-56
2024/01/09 03:23:46;;;;;;;;;;;;;;;17.89;37.35;101453.88;5068705;28;1367;-56
2024/01/09 03:26:12;;;;;;;;;;;;;;;16.80;39.41;101468.81;5063069;28;1058;-56
2024/01/09 03:28:38;;;;;;;;;;;;;;;16.28;40.61;101480.72;5079286;28;1039;-58
2024/01/09 03:31:03;;;;;;;;;;;;;;;16.40;40.40;101487.09;5074730;28;1972;-56
2024/01/09 03:33:29;;;;;;;;;;;;;;;17.82;37.75;101487.16;5068998;28;1144;-56
2024/01/09 03:35:54;;;;;;;;;;;;;;;16.98;38.84;101472.94;5065701;28;1226;-56
2024/01/09 03:38:20;;;;;;;;;;;;;;;16.35;40.40;101477.72;5068607;28;1110;-56
2024/01/09 03:40:46;;;;;;;;;;;;;;;16.53;40.32;101478.38;5075629;28;1326;-57
2024/01/09 03:43:11;;;;;;;;;;;;;;;17.86;37.34;101476.22;5073343;28;980;-57
2024/01/09 03:45:37;;;;;;;;;;;;;;;17.06;38.80;101485.75;5072528;28;1083;-55
2024/01/09 03:48:03;;;;;;;;;;;;;;;16.40;39.97;101499.50;5078944;28;1016;-56
2024/01/09 03:50:28;;;;;;;;;;;;;;;16.49;40.07;101506.06;5074013;28;1917;-56
2024/01/09 03:52:54;;;;;;;;;;;;;;;17.85;37.42;101498.47;5058694;28;1150;-57
2024/01/09 03:55:19;;;;;;;;;;;;;;;17.08;38.62;101498.97;5075763;28;1070;-57
2024/01/09 03:57:45;;;;;;;;;;;;;;;16.40;39.88;101515.44;5069696;28;1304;-59
2024/01/09 04:00:11;;;;;;;;;;;;;;;16.96;39.20;101536.00;5060716;28;1087;-57
2024/01/09 04:02:37;;;;;;;;;;;;;;;17.92;37.00;101530.84;5058525;28;1064;-58
2024/01/09 04:05:03;;;;;;;;;;;;;;;16.76;39.13;101535.44;5071755;28;1083;-59
2024/01/09 04:07:28;;;;;;;;;;;;;;;16.27;40.44;101533.91;5058645;28;1083;-56
2024/01/09 04:09:54;;;;;;;;;;;;;;;16.92;39.43;101518.50;5070899;28;2575;-56
2024/01/09 04:12:19;;;;;;;;;;;;;;;17.83;37.17;101503.03;5065536;28;2158;-56
2024/01/09 04:14:45;;;;;;;;;;;;;;;16.77;39.55;101499.91;5061101;28;1834;-55
2024/01/09 04:17:11;;;;;;;;;;;;;;;16.25;40.32;101520.72;5074942;28;2039;-56
2024/01/09 04:19:37;;;;;;;;;;;;;;;16.99;39.13;101551.75;5075029;28;1789;-57
2024/01/09 04:22:03;;;;;;;;;;;;;;;17.93;36.91;101556.53;5057523;28;2086;-58
2024/01/09 04:24:28;;;;;;;;;;;;;;;16.87;39.01;101547.19;5073506;28;1892;-54
2024/01/09 04:26:55;;;;;;;;;;;;;;;16.31;39.98;101529.28;5074911;28;1257;-56
2024/01/09 04:29:20;;;;;;;;;;;;;;;17.02;39.09;101532.09;5077414;28;1914;-55
2024/01/09 04:31:46;;;;;;;;;;;;;;;18.08;36.69;101535.16;5075398;28;1380;-57
2024/01/09 04:34:11;;;;;;;;;;;;;;;17.08;38.26;101528.19;5069573;28;1003;-57
2024/01/09 04:36:37;;;;;;;;;;;;;;;16.41;39.70;101522.47;5071005;28;1030;-56
2024/01/09 04:39:02;;;;;;;;;;;;;;;16.31;40.23;101519.50;5076881;28;1051;-56
2024/01/09 04:41:28;;;;;;;;;;;;;;;17.73;37.55;101507.28;5063139;28;1086;-55
2024/01/09 04:43:53;;;;;;;;;;;;;;;17.31;37.93;101507.31;5061204;28;1111;-54
2024/01/09 04:46:19;;;;;;;;;;;;;;;16.56;39.60;101520.69;5058651;28;1079;-55
2024/01/09 04:48:45;;;;;;;;;;;;;;;16.07;40.34;101530.63;5073957;28;1070;-53
2024/01/09 04:51:10;;;;;;;;;;;;;;;17.30;38.24;101524.22;5073514;28;1974;-56
2024/01/09 04:53:36;;;;;;;;;;;;;;;17.97;36.58;101515.44;5058329;28;1850;-59
2024/01/09 04:56:01;;;;;;;;;;;;;;;16.84;38.74;101521.66;5056871;28;1074;-59
2024/01/09 04:58:27;;;;;;;;;;;;;;;16.27;40.13;101534.75;5067890;28;1040;-57
2024/01/09 05:00:53;;;;;;;;;;;;;;;17.22;38.39;101538.84;5063118;28;1107;-59
2024/01/09 05:03:18;;;;;;;;;;;;;;;17.58;37.35;101549.88;5065435;28;1066;-56
2024/01/09 05:05:44;;;;;;;;;;;;;;;16.65;39.21;101549.34;5057127;28;1080;-62
2024/01/09 05:08:10;;;;;;;;;;;;;;;16.27;40.03;101556.00;5056929;28;1059;-60
2024/01/09 05:10:35;;;;;;;;;;;;;;;17.70;37.43;101569.53;5065933;28;1976;-58
2024/01/09 05:13:01;;;;;;;;;;;;;;;17.17;38.04;101580.81;5065353;28;1113;-56
2024/01/09 05:15:27;;;;;;;;;;;;;;;16.50;39.34;101590.09;5060060;28;1122;-58
2024/01/09 05:17:52;;;;;;;;;;;;;;;16.09;40.43;101597.75;5075937;28;1255;-58
2024/01/09 05:20:18;;;;;;;;;;;;;;;17.32;38.00;101612.72;5075748;28;1171;-57
2024/01/09 05:22:43;;;;;;;;;;;;;;;18.10;37.10;101615.81;5063284;28;2493;-54
2024/01/09 05:25:09;;;;;;;;;;;;;;;16.27;40.52;101614.41;5069553;28;1143;-56
2024/01/09 05:27:35;;;;;;;;;;;;;;;15.53;42.23;101611.44;5068695;28;1046;-56
2024/01/09 05:30:00;;;;;;;;;;;;;;;15.17;42.73;101598.28;5056708;28;1902;-56
2024/01/09 05:32:26;;;;;;;;;;;;;;;15.04;42.40;101595.44;5076278;28;1086;-57
2024/01/09 05:34:51;;;;;;;;;;;;;;;16.89;39.67;101609.94;5065334;28;1003;-57
2024/01/09 05:37:17;;;;;;;;;;;;;;;16.04;41.05;101599.81;5076342;28;1027;-56
2024/01/09 05:39:46;;;;;;;;;;;;;;;15.29;42.85;101586.16;5075501;28;1043;-54
2024/01/09 05:42:11;;;;;;;;;;;;;;;15.66;42.46;101587.75;5075651;28;1175;-56
2024/01/09 05:44:37;;;;;;;;;;;;;;;17.41;38.77;101596.19;5062420;28;1158;-56
2024/01/09 05:47:03;;;;;;;;;;;;;;;15.82;42.06;101622.22;5075939;28;861;-56
2024/01/09 05:49:28;;;;;;;;;;;;;;;15.26;42.90;101642.00;5062494;28;1901;-55
2024/01/09 05:51:54;;;;;;;;;;;;;;;16.96;40.10;101639.66;5076445;28;1107;-56
2024/01/09 05:54:19;;;;;;;;;;;;;;;16.05;41.82;101640.50;5075491;28;2276;-55
2024/01/09 05:56:45;;;;;;;;;;;;;;;15.31;42.94;101647.06;5075791;28;1238;-56
2024/01/09 05:59:11;;;;;;;;;;;;;;;16.31;41.55;101656.72;5074534;28;1187;-54
2024/01/09 06:01:36;;;;;;;;;;;;;;;17.85;38.53;101678.63;5063476;28;1114;-56
2024/01/09 06:04:02;;;;;;;;;;;;;;;16.23;41.22;101679.25;5061679;28;1176;-56
2024/01/09 06:06:28;;;;;;;;;;;;;;;15.47;42.80;101673.59;5074901;28;1122;-51
2024/01/09 06:08:53;;;;;;;;;;;;;;;15.20;43.02;101686.53;5075800;28;1306;-56
2024/01/09 06:11:19;;;;;;;;;;;;;;;17.35;39.68;101692.34;5068465;28;1953;-55
2024/01/09 06:13:44;;;;;;;;;;;;;;;15.91;42.10;101687.19;5063501;28;1127;-57
2024/01/09 06:16:10;;;;;;;;;;;;;;;15.30;43.31;101691.25;5074419;28;1014;-56
2024/01/09 06:18:35;;;;;;;;;;;;;;;16.12;41.98;101692.25;5075820;28;1082;-55
2024/01/09 06:21:01;;;;;;;;;;;;;;;17.32;39.20;101692.50;5075089;28;1055;-55
2024/01/09 06:23:27;;;;;;;;;;;;;;;15.78;42.25;101690.50;5073586;28;2186;-56
2024/01/09 06:25:52;;;;;;;;;;;;;;;15.25;43.09;101684.47;5062049;28;1070;-56
2024/01/09 06:28:18;;;;;;;;;;;;;;;15.85;42.61;101684.88;5065213;28;1031;-56
2024/01/09 06:30:44;;;;;;;;;;;;;;;17.63;39.00;101699.44;5072339;28;1917;-55
2024/01/09 06:33:09;;;;;;;;;;;;;;;16.25;41.45;101709.22;5065256;28;1195;-58
2024/01/09 06:35:35;;;;;;;;;;;;;;;15.47;42.90;101705.41;5067095;28;1170;-53
2024/01/09 06:38:00;;;;;;;;;;;;;;;16.02;42.38;101706.06;5079660;28;1023;-61
2024/01/09 06:40:26;;;;;;;;;;;;;;;17.56;38.93;101713.22;5075727;28;1023;-50
2024/01/09 06:42:52;;;;;;;;;;;;;;;15.89;42.38;101715.59;5069800;28;1216;-55
2024/01/09 06:45:18;;;;;;;;;;;;;;;15.37;43.44;101712.13;5074694;28;1063;-54
2024/01/09 06:47:44;;;;;;;;;;;;;;;17.55;39.35;101720.34;5075760;28;1289;-54
2024/01/09 06:50:09;;;;;;;;;;;;;;;16.76;40.54;101721.44;5078257;28;1934;-54
2024/01/09 06:52:35;;;;;;;;;;;;;;;15.81;42.31;101720.47;5076822;28;2456;-54
2024/01/09 06:55:01;;;;;;;;;;;;;;;17.12;40.37;101721.16;5059224;28;1048;-53
2024/01/09 06:57:27;;;;;;;;;;;;;;;16.81;40.24;101726.47;5058831;28;1019;-53
2024/01/09 06:59:52;;;;;;;;;;;;;;;15.70;42.64;101711.28;5059682;28;869;-56
2024/01/09 07:02:18;;;;;;;;;;;;;;;17.30;39.70;101721.00;5063444;28;1123;-56
2024/01/09 07:04:44;;;;;;;;;;;;;;;16.74;40.35;101733.94;5075062;28;972;-56
2024/01/09 07:07:09;;;;;;;;;;;;;;;15.88;42.01;101729.81;5064796;28;1099;-55
2024/01/09 07:09:36;;;;;;;;;;;;;;;17.37;39.61;101725.00;5077961;28;1905;-51
2024/01/09 07:12:02;;;;;;;;;;;;;;;16.50;40.74;101741.50;5065622;28;1004;-53
2024/01/09 07:14:28;;;;;;;;;;;;;;;15.79;42.54;101736.47;5070023;28;1146;-56
2024/01/09 07:16:53;;;;;;;;;;;;;;;15.74;42.91;101731.41;5058867;28;1063;-58
2024/01/09 07:19:19;;;;;;;;;;;;;;;17.17;39.52;101740.34;5071684;28;1223;-52
2024/01/09 07:21:44;;;;;;;;;;;;;;;15.77;42.52;101738.34;5074168;28;1178;-56
2024/01/09 07:24:10;;;;;;;;;;;;;;;15.66;43.21;101739.75;5072705;28;2234;-52
2024/01/09 07:26:39;;;;;;;;;;;;;;;17.80;38.60;101736.59;5061648;28;1086;-50
2024/01/09 07:29:05;;;;;;;;;;;;;;;16.29;41.17;101747.09;5069557;28;1168;-53
2024/01/09 07:31:30;;;;;;;;;;;;;;;15.63;42.76;101745.25;5078262;28;1905;-51
2024/01/09 07:33:56;;;;;;;;;;;;;;;15.42;42.85;101736.63;5078400;28;1384;-49
2024/01/09 07:36:22;;;;;;;;;;;;;;;15.86;42.31;101747.63;5078015;28;1157;-52
2024/01/09 07:38:47;;;;;;;;;;;;;;;17.02;39.79;101756.25;5078657;28;1186;-51
2024/01/09 07:41:13;;;;;;;;;;;;;;;15.75;42.34;101749.03;5072604;28;1138;-54
2024/01/09 07:43:38;;;;;;;;;;;;;;;15.27;42.86;101747.09;5073902;28;1234;-50
2024/01/09 07:46:04;;;;;;;;;;;;;;;17.24;39.81;101755.00;5076633;28;1230;-51
2024/01/09 07:48:30;;;;;;;;;;;;;;;16.83;40.15;101758.25;5069331;28;1142;-52
2024/01/09 07:50:56;;;;;;;;;;;;;;;15.58;42.66;101754.41;5077222;28;1987;-54
2024/01/09 07:53:22;;;;;;;;;;;;;;;15.36;43.31;101752.84;5076682;28;2034;-47
2024/01/09 07:55:47;;;;;;;;;;;;;;;17.53;38.96;101759.50;5077067;28;1025;-54
2024/01/09 07:58:13;;;;;;;;;;;;;;;15.95;41.62;101770.16;5071862;28;1242;-52
2024/01/09 08:00:38;;;;;;;;;;;;;;;15.52;43.13;101764.38;5073980;28;1024;-52
2024/01/09 08:03:05;;;;;;;;;;;;;;;17.66;38.74;101761.41;5077404;28;1055;-54
2024/01/09 08:05:31;;;;;;;;;;;;;;;16.32;40.91;101762.84;5077140;28;1273;-55
2024/01/09 08:07:56;;;;;;;;;;;;;;;15.66;42.47;101768.09;5077553;28;1063;-52
2024/01/09 08:10:22;;;;;;;;;;;;;;;16.19;41.71;101770.63;5077743;28;1902;-57
2024/01/09 08:12:47;;;;;;;;;;;;;;;17.32;38.78;101758.97;5076417;28;1016;-55
2024/01/09 08:15:13;;;;;;;;;;;;;;;15.84;41.66;101758.31;5066783;28;1159;-57
2024/01/09 08:17:39;;;;;;;;;;;;;;;17.03;39.92;101762.41;5075771;28;1087;-56
2024/01/09 08:20:05;;;;;;;;;;;;;;;16.72;39.96;101757.06;5077862;28;1203;-57
2024/01/09 08:22:30;;;;;;;;;;;;;;;15.86;41.93;101743.19;5066204;28;1857;-57
2024/01/09 08:24:56;;;;;;;;;;;;;;;16.55;40.94;101755.38;5067859;28;1147;-55
2024/01/09 08:27:21;;;;;;;;;;;;;;;16.68;39.94;101739.59;5057367;28;1074;-54
2024/01/09 08:29:47;;;;;;;;;;;;;;;15.69;42.07;101730.81;5070875;28;1964;-51
2024/01/09 08:32:15;;;;;;;;;;;;;;;17.41;38.89;101734.50;5070415;28;1145;-55
2024/01/09 08:34:41;;;;;;;;;;;;;;;16.20;40.98;101735.16;5074222;28;1361;-57
2024/01/09 08:37:06;;;;;;;;;;;;;;;15.66;41.82;101734.47;5069567;28;1017;-56
2024/01/09 08:39:32;;;;;;;;;;;;;;;16.99;39.87;101736.94;5076697;28;1329;-52
2024/01/09 08:41:57;;;;;;;;;;;;;;;17.17;38.71;101735.03;5077379;28;1166;-55
2024/01/09 08:44:25;;;;;;;;;;;;;;;15.97;41.13;101731.09;5077226;28;1360;-59
2024/01/09 08:46:50;;;;;;;;;;;;;;;16.61;40.34;101731.13;5077266;28;1102;-56
2024/01/09 08:49:16;;;;;;;;;;;;;;;18.20;37.12;101735.91;5064252;28;1913;-58
2024/01/09 08:51:41;;;;;;;;;;;;;;;16.70;39.59;101724.41;5076791;28;1012;-59
2024/01/09 08:54:07;;;;;;;;;;;;;;;15.90;41.39;101728.78;5068223;28;2451;-56
2024/01/09 08:56:33;;;;;;;;;;;;;;;17.36;38.51;101732.13;5064233;28;1094;-58
2024/01/09 08:58:58;;;;;;;;;;;;;;;16.81;39.30;101710.53;5075907;28;1079;-52
2024/01/09 09:01:25;;;;;;;;;;;;;;;16.25;41.08;101719.84;5067284;28;1001;-57
2024/01/09 09:03:51;;;;;;;;;;;;;;;18.21;36.86;101721.63;5076933;28;1040;-55
2024/01/09 09:06:17;;;;;;;;;;;;;;;16.81;39.41;101709.66;5072414;28;1182;-54
2024/01/09 09:08:43;;;;;;;;;;;;;;;16.08;41.09;101718.13;5064266;28;1365;-55
2024/01/09 09:11:08;;;;;;;;;;;;;;;15.69;41.49;101720.19;5072362;28;1988;-54
2024/01/09 09:13:34;;;;;;;;;;;;;;;16.46;40.61;101721.38;5075324;28;1016;-53
2024/01/09 09:15:59;;;;;;;;;;;;;;;17.90;37.01;101721.75;5075998;28;1051;-54
2024/01/09 09:18:25;;;;;;;;;;;;;;;16.18;40.46;101726.47;5076045;28;1159;-53
2024/01/09 09:20:50;;;;;;;;;;;;;;;15.70;41.24;101716.59;5075723;28;1364;-52
2024/01/09 09:23:16;;;;;;;;;;;;;;;15.40;42.02;101723.44;5068366;28;1836;-53
2024/01/09 09:25:42;;;;;;;;;;;;;;;17.36;38.37;101724.16;5074991;28;885;-53
2024/01/09 09:28:07;;;;;;;;;;;;;;;17.95;36.98;101726.81;5074398;28;1115;-57
2024/01/09 09:30:33;;;;;;;;;;;;;;;16.25;39.99;101722.50;5076213;28;1906;-56
2024/01/09 09:32:58;;;;;;;;;;;;;;;15.74;41.13;101725.25;5075777;28;1253;-58
2024/01/09 09:35:24;;;;;;;;;;;;;;;15.40;42.18;101727.88;5075674;28;1102;-50
2024/01/09 09:37:50;;;;;;;;;;;;;;;17.67;37.55;101724.06;5071888;28;1047;-53
2024/01/09 09:40:15;;;;;;;;;;;;;;;16.57;39.32;101718.97;5076241;28;999;-48
2024/01/09 09:42:41;;;;;;;;;;;;;;;15.87;40.90;101718.34;5074883;28;1074;-55
2024/01/09 09:45:09;;;;;;;;;;;;;;;15.43;41.74;101717.97;5073262;28;1151;-52
2024/01/09 09:47:35;;;;;;;;;;;;;;;17.58;37.67;101719.31;5065124;28;1047;-51
2024/01/09 09:50:01;;;;;;;;;;;;;;;17.80;36.85;101713.50;5071627;28;1910;-55
2024/01/09 09:52:26;;;;;;;;;;;;;;;16.20;39.82;101718.41;5064496;28;1825;-53
2024/01/09 09:54:52;;;;;;;;;;;;;;;16.21;40.69;101712.13;5053782;28;1148;-53
2024/01/09 09:57:19;;;;;;;;;;;;;;;18.20;36.45;101709.28;5046790;28;1012;-54
2024/01/09 09:59:45;;;;;;;;;;;;;;;16.55;39.22;101702.25;5070639;28;1136;-54
2024/01/09 10:02:11;;;;;;;;;;;;;;;16.99;38.86;101703.25;5051409;28;1020;-51
2024/01/09 10:04:37;;;;;;;;;;;;;;;17.57;37.20;101709.59;5050400;28;1024;-53
2024/01/09 10:07:02;;;;;;;;;;;;;;;16.23;39.99;101681.91;5053807;28;1155;-54
2024/01/09 10:09:30;;;;;;;;;;;;;;;17.48;37.81;101687.94;5056765;28;1906;-51
2024/01/09 10:11:55;;;;;;;;;;;;;;;16.72;38.85;101685.34;5075168;28;1139;-54
2024/01/09 10:14:21;;;;;;;;;;;;;;;15.94;40.24;101697.63;5075842;28;1062;-54
2024/01/09 10:16:54;;;;;;;;;;;;;;;17.01;38.75;101695.19;5044503;28;1096;-56
2024/01/09 10:19:22;;;;;;;;;;;;;;;17.32;37.43;101697.81;5074392;28;1037;-54
2024/01/09 10:21:48;;;;;;;;;;;;;;;16.14;39.83;101685.94;5061731;28;1079;-54
2024/01/09 10:24:14;;;;;;;;;;;;;;;15.66;40.71;101689.38;5069609;28;2706;-54
2024/01/09 10:26:40;;;;;;;;;;;;;;;17.41;37.78;101693.75;5062706;28;1124;-52
2024/01/09 10:29:08;;;;;;;;;;;;;;;16.82;38.26;101690.09;5043414;28;1071;-47
2024/01/09 10:31:33;;;;;;;;;;;;;;;15.91;40.30;101690.69;5063325;28;1986;-55
2024/01/09 10:33:59;;;;;;;;;;;;;;;17.80;36.67;101699.34;5070306;28;1275;-55
2024/01/09 10:36:25;;;;;;;;;;;;;;;16.98;37.99;101704.19;5070232;28;1235;-53
2024/01/09 10:38:50;;;;;;;;;;;;;;;16.09;40.10;101698.63;5067326;28;1144;-50
2024/01/09 10:41:16;;;;;;;;;;;;;;;15.91;40.68;101681.88;5074996;28;1158;-52
2024/01/09 10:43:42;;;;;;;;;;;;;;;17.96;36.36;101693.91;5064233;28;1039;-53
2024/01/09 10:46:08;;;;;;;;;;;;;;;16.59;38.70;101693.16;5059657;28;1119;-54
2024/01/09 10:48:34;;;;;;;;;;;;;;;15.83;40.16;101684.94;5075253;28;1063;-56
2024/01/09 10:50:59;;;;;;;;;;;;;;;17.63;36.89;101688.78;5057134;28;1968;-55
2024/01/09 10:53:26;;;;;;;;;;;;;;;16.85;37.91;101681.97;5048613;28;2387;-55
2024/01/09 10:55:51;;;;;;;;;;;;;;;16.00;39.99;101693.81;5042685;28;1218;-51
2024/01/09 10:58:17;;;;;;;;;;;;;;;15.69;40.24;101685.72;5065907;28;1062;-54
2024/01/09 11:00:42;;;;;;;;;;;;;;;17.45;37.06;101689.97;5067718;28;1082;-55
2024/01/09 11:03:08;;;;;;;;;;;;;;;16.65;38.12;101682.19;5057473;28;1039;-54
2024/01/09 11:05:34;;;;;;;;;;;;;;;15.79;40.11;101686.06;5057247;28;1142;-53
2024/01/09 11:08:00;;;;;;;;;;;;;;;17.86;36.41;101689.16;5066137;28;1131;-53
2024/01/09 11:10:25;;;;;;;;;;;;;;;16.38;38.76;101672.19;5070854;28;1976;-56
2024/01/09 11:12:52;;;;;;;;;;;;;;;15.80;40.03;101679.81;5071752;28;1059;-50
2024/01/09 11:15:18;;;;;;;;;;;;;;;17.15;37.64;101682.91;5041680;28;1141;-54
2024/01/09 11:17:45;;;;;;;;;;;;;;;17.46;36.47;101676.56;5064781;28;1092;-52
2024/01/09 11:20:11;;;;;;;;;;;;;;;16.20;39.15;101683.91;5059012;28;1059;-55
2024/01/09 11:22:37;;;;;;;;;;;;;;;15.67;39.89;101674.31;5078157;28;1841;-53
2024/01/09 11:25:03;;;;;;;;;;;;;;;17.45;36.86;101682.81;5072276;28;1165;-48
2024/01/09 11:27:37;;;;;;;;;;;;;;;16.82;37.50;101688.31;5077905;28;1298;-46
2024/01/09 11:30:05;;;;;;;;;;;;;;;15.88;39.41;101690.03;5076718;28;1973;-50
2024/01/09 11:32:31;;;;;;;;;;;;;;;17.81;35.97;101707.22;5077501;28;1293;-48
2024/01/09 11:35:16;;;;;;;;;;;;;;;16.82;37.64;101712.22;5060156;28;1191;-49
2024/01/09 11:37:42;;;;;;;;;;;;;;;15.94;39.45;101704.72;5076883;28;1187;-52
2024/01/09 11:40:11;;;;;;;;;;;;;;;17.14;36.77;101703.31;5078415;28;1230;-50
2024/01/09 11:42:42;;;;;;;;;;;;;;;16.06;38.63;101714.72;5069768;28;1359;-51
2024/01/09 11:45:09;;;;;;;;;;;;;;;15.95;39.23;101714.41;5075119;28;1100;-53
2024/01/09 11:47:38;;;;;;;;;;;;;;;17.95;35.51;101717.00;5067968;28;1100;-45
2024/01/09 11:50:07;;;;;;;;;;;;;;;16.79;37.53;101731.00;5071033;28;1906;-47
2024/01/09 11:52:32;;;;;;;;;;;;;;;15.96;39.17;101724.94;5058381;28;2491;-54
2024/01/09 11:54:58;;;;;;;;;;;;;;;17.55;36.41;101735.47;5062900;28;1099;-48
2024/01/09 11:57:24;;;;;;;;;;;;;;;17.07;36.68;101717.88;5077955;28;1092;-50
2024/01/09 11:59:49;;;;;;;;;;;;;;;16.13;38.73;101733.81;5077608;28;1078;-49
2024/01/09 12:02:17;;;;;;;;;;;;;;;16.39;38.60;101729.69;5077762;28;844;-51
2024/01/09 12:04:43;;;;;;;;;;;;;;;17.27;36.51;101719.38;5077434;28;1448;-54
2024/01/09 12:07:11;;;;;;;;;;;;;;;16.08;38.75;101743.81;5058589;28;1028;-55
2024/01/09 12:09:37;;;;;;;;;;;;;;;17.74;35.67;101751.13;5072000;28;1971;-55
2024/01/09 12:12:06;;;;;;;;;;;;;;;16.74;37.19;101749.88;5068918;28;1139;-55
2024/01/09 12:14:32;;;;;;;;;;;;;;;15.96;38.75;101748.84;5066242;28;1072;-54
2024/01/09 12:16:57;;;;;;;;;;;;;;;15.60;39.77;101752.53;5064769;28;1174;-54
2024/01/09 12:19:23;;;;;;;;;;;;;;;17.01;37.15;101751.88;5075287;28;1047;-55
2024/01/09 12:21:48;;;;;;;;;;;;;;;18.32;34.46;101755.56;5077252;28;1015;-54
2024/01/09 12:24:14;;;;;;;;;;;;;;;16.67;37.31;101761.78;5075449;28;2522;-53
2024/01/09 12:26:40;;;;;;;;;;;;;;;15.97;38.64;101754.97;5052014;28;910;-53
2024/01/09 12:29:05;;;;;;;;;;;;;;;17.31;36.41;101757.28;5053033;28;1114;-55
2024/01/09 12:31:32;;;;;;;;;;;;;;;17.29;36.04;101756.50;5069197;28;1965;-53
2024/01/09 12:33:57;;;;;;;;;;;;;;;16.03;38.76;101757.34;5052245;28;1462;-55
2024/01/09 12:36:25;;;;;;;;;;;;;;;16.01;38.94;101762.75;5052710;28;1126;-49
2024/01/09 12:38:51;;;;;;;;;;;;;;;18.06;34.98;101766.91;5073434;28;884;-48
2024/01/09 12:41:19;;;;;;;;;;;;;;;16.42;37.84;101779.13;5070133;28;1071;-52